Time;durP1;ratioP1;P1;durP2;ratioP2;P2;SDS_P1;SDS_P2;PMS_P1;PMS_P2;Temp;Humidity;BMP_temperature;BMP_pressure;BME280_temperature;BME280_humidity;BME280_pressure;Samples;Min_cycle;Max_cycle;Signal;HPM_P1;HPM_P2
2023/10/20 00:01:33;;;;;;;5.85;3.05;;;15.60;88.90;;;;;;4973950;28;20030;-81
2023/10/20 00:03:58;;;;;;;5.43;3.22;;;15.60;89.00;;;;;;4973955;28;20033;-81
2023/10/20 00:06:24;;;;;;;6.00;3.40;;;15.60;89.00;;;;;;4956498;28;20448;-81
2023/10/20 00:08:49;;;;;;;5.97;3.20;;;15.60;89.10;;;;;;4956659;28;20113;-81
2023/10/20 00:11:15;;;;;;;5.65;3.05;;;15.60;89.10;;;;;;4956577;28;20023;-81
2023/10/20 00:13:41;;;;;;;5.43;3.10;;;15.50;89.10;;;;;;4955868;28;20374;-81
2023/10/20 00:16:06;;;;;;;5.75;3.33;;;15.60;89.20;;;;;;4956753;28;20516;-81
2023/10/20 00:18:32;;;;;;;5.80;3.35;;;15.50;89.20;;;;;;4956819;28;20022;-81
2023/10/20 00:20:57;;;;;;;5.72;3.10;;;15.50;89.20;;;;;;4956235;28;20070;-82
2023/10/20 00:23:23;;;;;;;5.82;3.33;;;15.50;89.30;;;;;;4956380;28;20030;-81
2023/10/20 00:25:49;;;;;;;5.70;3.30;;;15.50;89.20;;;;;;4956480;28;20452;-81
2023/10/20 00:28:14;;;;;;;5.82;3.20;;;15.50;89.30;;;;;;4973608;28;20109;-81
2023/10/20 00:30:41;;;;;;;5.57;3.40;;;15.50;89.30;;;;;;4967307;28;20388;-81
2023/10/20 00:33:07;;;;;;;6.47;3.70;;;15.50;89.40;;;;;;4993023;28;20027;-81
2023/10/20 00:35:33;;;;;;;5.90;3.55;;;15.50;89.30;;;;;;4975622;28;20562;-81
2023/10/20 00:37:59;;;;;;;5.75;3.30;;;15.50;89.30;;;;;;4993149;28;20127;-81
2023/10/20 00:40:25;;;;;;;6.43;3.58;;;15.50;89.30;;;;;;4975287;28;20034;-81
2023/10/20 00:42:50;;;;;;;5.30;3.22;;;15.50;89.40;;;;;;4992998;28;20030;-81
2023/10/20 00:45:16;;;;;;;5.40;3.17;;;15.50;89.40;;;;;;4975634;28;20396;-81
2023/10/20 00:47:44;;;;;;;5.45;2.80;;;15.50;89.40;;;;;;4975590;28;20088;-81
2023/10/20 00:50:13;;;;;;;5.40;3.17;;;15.50;89.30;;;;;;4975275;28;20027;-81
2023/10/20 00:52:46;;;;;;;4.85;3.00;;;15.50;89.20;;;;;;4975383;28;20018;-81
2023/10/20 00:55:13;;;;;;;5.80;3.30;;;15.60;89.20;;;;;;4992952;28;20041;-82
2023/10/20 00:57:40;;;;;;;5.47;3.08;;;15.60;89.10;;;;;;4975429;28;20026;-82
2023/10/20 01:00:09;;;;;;;5.30;2.85;;;15.60;89.00;;;;;;4992766;28;20037;-81
2023/10/20 01:02:36;;;;;;;5.25;3.25;;;15.60;88.90;;;;;;4975288;28;20117;-81
2023/10/20 01:05:05;;;;;;;5.72;3.42;;;15.60;88.90;;;;;;4975386;28;20116;-81
2023/10/20 01:07:31;;;;;;;5.57;3.20;;;15.60;88.90;;;;;;4975473;28;20053;-81
2023/10/20 01:10:00;;;;;;;5.68;3.38;;;15.60;88.80;;;;;;4992586;28;20042;-81
2023/10/20 01:12:26;;;;;;;5.25;3.28;;;15.60;88.90;;;;;;4975379;28;20026;-81
2023/10/20 01:14:52;;;;;;;5.40;3.17;;;15.60;88.90;;;;;;4975237;28;20029;-81
2023/10/20 01:17:17;;;;;;;5.63;3.28;;;15.60;89.00;;;;;;4975379;28;20027;-81
2023/10/20 01:19:44;;;;;;;5.32;3.22;;;15.60;89.00;;;;;;4975103;28;20488;-81
2023/10/20 01:22:09;;;;;;;5.95;3.40;;;15.60;89.10;;;;;;4975364;28;20049;-82
2023/10/20 01:24:35;;;;;;;5.63;3.38;;;15.60;89.20;;;;;;4976328;28;20057;-81
2023/10/20 01:27:01;;;;;;;5.70;3.40;;;15.50;89.20;;;;;;4978834;28;20025;-81
2023/10/20 01:29:26;;;;;;;5.80;3.50;;;15.50;89.20;;;;;;4978798;28;20117;-81
2023/10/20 01:31:52;;;;;;;6.13;3.53;;;15.50;89.30;;;;;;4996342;28;20101;-81
2023/10/20 01:34:17;;;;;;;5.97;3.78;;;15.50;89.30;;;;;;4996189;28;20034;-81
2023/10/20 01:36:43;;;;;;;5.60;3.22;;;15.50;89.30;;;;;;4978660;28;20022;-81
2023/10/20 01:39:08;;;;;;;5.53;3.22;;;15.50;89.40;;;;;;4978619;28;20056;-80
2023/10/20 01:41:34;;;;;;;5.90;3.60;;;15.50;89.30;;;;;;4978584;28;20399;-82
2023/10/20 01:43:59;;;;;;;6.30;3.40;;;15.50;89.40;;;;;;4978539;28;20500;-81
2023/10/20 01:46:25;;;;;;;6.00;3.67;;;15.50;89.50;;;;;;4995807;28;20543;-81
2023/10/20 01:48:50;;;;;;;5.57;3.67;;;15.50;89.40;;;;;;4978721;28;20113;-81
2023/10/20 01:51:16;;;;;;;6.75;3.60;;;15.50;89.50;;;;;;4995538;28;20383;-81
2023/10/20 01:53:42;;;;;;;5.93;3.38;;;15.50;89.50;;;;;;4978397;28;20049;-81
2023/10/20 01:56:07;;;;;;;6.10;3.40;;;15.50;89.50;;;;;;4978465;28;20034;-81
2023/10/20 01:58:33;;;;;;;5.47;3.45;;;15.50;89.50;;;;;;4995822;28;20061;-82
2023/10/20 02:00:58;;;;;;;5.68;3.10;;;15.50;89.50;;;;;;4978030;28;20030;-81
2023/10/20 02:03:24;;;;;;;5.40;3.15;;;15.50;89.50;;;;;;4978166;28;20368;-81
2023/10/20 02:05:49;;;;;;;6.75;3.47;;;15.50;89.50;;;;;;4978192;28;20022;-82
2023/10/20 02:08:15;;;;;;;5.75;3.33;;;15.50;89.40;;;;;;4978162;28;20439;-81
2023/10/20 02:10:44;;;;;;;5.55;3.00;;;15.50;89.20;;;;;;4977851;28;20022;-81
2023/10/20 02:13:10;;;;;;;5.50;3.35;;;15.60;89.30;;;;;;4978079;28;20462;-82
2023/10/20 02:15:36;;;;;;;5.47;3.30;;;15.60;89.20;;;;;;4995589;28;20102;-81
2023/10/20 02:18:01;;;;;;;5.60;3.35;;;15.60;89.10;;;;;;4978001;28;20381;-81
2023/10/20 02:20:27;;;;;;;5.68;3.30;;;15.60;89.10;;;;;;4977574;28;20026;-81
2023/10/20 02:22:53;;;;;;;5.75;3.28;;;15.60;89.00;;;;;;4977817;28;20018;-81
2023/10/20 02:25:20;;;;;;;5.10;3.20;;;15.60;89.00;;;;;;4995244;28;20043;-81
2023/10/20 02:27:47;;;;;;;5.80;3.53;;;15.60;89.00;;;;;;4977671;28;20506;-82
2023/10/20 02:30:14;;;;;;;5.90;3.33;;;15.60;89.10;;;;;;4977516;28;20032;-81
2023/10/20 02:32:39;;;;;;;6.07;3.58;;;15.60;89.10;;;;;;4977733;28;20100;-82
2023/10/20 02:35:06;;;;;;;5.80;3.60;;;15.60;89.20;;;;;;4994645;28;20023;-81
2023/10/20 02:37:32;;;;;;;6.28;3.40;;;15.50;89.20;;;;;;4994959;28;20089;-81
2023/10/20 02:39:57;;;;;;;6.88;3.50;;;15.50;89.30;;;;;;4977339;28;20431;-82
2023/10/20 02:42:23;;;;;;;6.43;3.65;;;15.50;89.30;;;;;;4995004;28;20058;-81
2023/10/20 02:44:49;;;;;;;6.20;3.95;;;15.60;89.50;;;;;;4977591;28;20030;-81
2023/10/20 02:47:14;;;;;;;5.68;3.47;;;15.50;89.40;;;;;;4977234;28;20026;-81
2023/10/20 02:49:40;;;;;;;6.03;3.50;;;15.40;89.40;;;;;;4977232;28;20121;-81
2023/10/20 02:52:05;;;;;;;6.70;3.92;;;15.50;90.00;;;;;;4994333;28;20836;-81
2023/10/20 02:54:31;;;;;;;5.72;3.40;;;15.50;89.50;;;;;;4973876;28;20436;-81
2023/10/20 02:56:56;;;;;;;5.50;3.50;;;15.50;89.50;;;;;;4980406;28;20054;-82
2023/10/20 02:59:23;;;;;;;6.45;3.53;;;15.50;89.60;;;;;;4976650;28;20034;-81
2023/10/20 03:01:48;;;;;;;6.97;4.20;;;15.50;89.60;;;;;;4977099;28;20027;-82
2023/10/20 03:04:14;;;;;;;6.35;3.70;;;15.50;89.50;;;;;;4976993;28;20041;-81
2023/10/20 03:06:41;;;;;;;6.00;3.38;;;15.50;89.60;;;;;;4976838;28;20424;-81
2023/10/20 03:09:07;;;;;;;6.18;3.60;;;15.50;89.60;;;;;;4977101;28;20113;-83
2023/10/20 03:11:33;;;;;;;6.10;3.97;;;15.50;89.60;;;;;;4976818;28;20161;-81
2023/10/20 03:13:58;;;;;;;6.65;3.90;;;15.50;89.60;;;;;;4976731;28;20168;-81
2023/10/20 03:16:24;;;;;;;6.07;3.80;;;15.50;89.60;;;;;;4994267;28;20034;-82
2023/10/20 03:18:50;;;;;;;5.53;3.30;;;15.40;89.50;;;;;;4976894;28;20041;-82
2023/10/20 03:21:18;;;;;;;6.22;3.53;;;15.50;89.60;;;;;;4976561;28;20030;-81
2023/10/20 03:23:43;;;;;;;6.15;3.45;;;15.50;89.50;;;;;;4994060;28;20399;-81
2023/10/20 03:26:13;;;;;;;5.70;3.45;;;15.50;89.30;;;;;;4976600;28;20113;-81
2023/10/20 03:28:39;;;;;;;5.75;3.28;;;15.60;89.40;;;;;;4976505;28;20026;-81
2023/10/20 03:31:05;;;;;;;5.72;3.47;;;15.50;89.20;;;;;;4993588;28;20018;-81
2023/10/20 03:33:30;;;;;;;6.28;3.50;;;15.60;89.10;;;;;;4993836;28;20069;-81
2023/10/20 03:36:04;;;;;;;6.15;3.38;;;15.60;89.10;;;;;;4976565;28;20034;-81
2023/10/20 03:38:30;;;;;;;6.07;3.35;;;15.60;89.10;;;;;;4976251;28;20492;-81
2023/10/20 03:41:09;;;;;;;6.10;3.50;;;15.60;89.00;;;;;;4976060;28;20022;-81
2023/10/20 03:43:35;;;;;;;5.85;3.42;;;15.50;89.00;;;;;;4976677;28;20050;-81
2023/10/20 03:46:03;;;;;;;5.82;3.40;;;15.50;89.10;;;;;;4976191;28;20057;-81
2023/10/20 03:48:29;;;;;;;6.28;3.63;;;15.60;89.20;;;;;;4992878;28;20061;-81
2023/10/20 03:50:55;;;;;;;6.53;3.95;;;15.50;89.20;;;;;;4975725;28;20492;-80
2023/10/20 03:53:27;;;;;;;6.03;3.50;;;15.50;89.30;;;;;;4976143;28;20456;-81
2023/10/20 03:56:03;;;;;;;;;;;15.50;89.30;;;;;;4976638;28;20027;-82
2023/10/20 03:58:29;;;;;;;6.03;3.78;;;15.50;89.40;;;;;;4993544;28;19913;-82
2023/10/20 04:00:57;;;;;;;6.47;3.95;;;15.50;89.50;;;;;;4975831;28;20134;-82
2023/10/20 04:03:25;;;;;;;6.75;4.07;;;15.50;89.50;;;;;;4976073;28;20045;-82
2023/10/20 04:05:51;;;;;;;5.35;3.38;;;15.50;89.50;;;;;;4993286;28;20022;-82
2023/10/20 04:08:21;;;;;;;6.50;3.85;;;15.50;89.50;;;;;;4975912;28;20041;-82
2023/10/20 04:10:46;;;;;;;5.72;3.40;;;15.50;89.60;;;;;;4975692;28;20076;-82
2023/10/20 04:13:12;;;;;;;6.53;4.03;;;15.50;89.60;;;;;;4975676;28;20038;-81
2023/10/20 04:15:39;;;;;;;6.13;3.67;;;15.50;89.60;;;;;;4975865;28;20027;-81
2023/10/20 04:18:05;;;;;;;6.40;3.80;;;15.40;89.60;;;;;;4976029;28;20084;-82
2023/10/20 04:20:37;;;;;;;5.80;3.67;;;15.50;89.60;;;;;;4969577;28;20023;-81
2023/10/20 04:23:04;;;;;;;6.13;3.60;;;15.50;89.70;;;;;;4962941;28;20030;-81
2023/10/20 04:25:33;;;;;;;6.03;3.80;;;15.40;89.60;;;;;;4970993;28;20054;-81
2023/10/20 04:28:08;;;;;;;6.20;3.88;;;15.50;89.70;;;;;;4973424;28;20034;-82
2023/10/20 04:52:53;;;;;;;5.95;3.53;;;15.50;89.10;;;;;;4991162;28;20041;-82
2023/10/20 04:58:07;;;;;;;5.60;3.50;;;15.60;89.10;;;;;;4991376;28;20026;-82
2023/10/20 05:00:36;;;;;;;6.20;3.72;;;15.60;89.20;;;;;;4977063;28;20034;-80
2023/10/20 05:05:39;;;;;;;8.35;4.28;;;15.50;89.20;;;;;;4994257;28;20030;-85
2023/10/20 05:08:17;;;;;;;6.32;3.72;;;15.60;89.40;;;;;;4994162;28;20532;-82
2023/10/20 05:10:47;;;;;;;6.47;3.67;;;15.50;89.40;;;;;;4983821;28;20030;-83
2023/10/20 05:13:12;;;;;;;6.93;4.30;;;15.50;89.50;;;;;;4982495;28;20034;-83
2023/10/20 05:15:41;;;;;;;6.70;3.80;;;15.50;89.50;;;;;;4992624;28;20488;-81
2023/10/20 05:18:12;;;;;;;6.85;4.18;;;15.50;89.50;;;;;;4988275;28;20034;-82
2023/10/20 05:20:39;;;;;;;6.30;4.03;;;15.50;89.50;;;;;;5001399;28;20030;-82
2023/10/20 05:23:05;;;;;;;6.18;3.85;;;15.50;89.60;;;;;;5013943;28;20034;-80
2023/10/20 05:25:31;;;;;;;6.65;3.80;;;15.40;89.60;;;;;;4995467;28;20080;-82
2023/10/20 05:27:56;;;;;;;6.45;4.07;;;15.40;89.50;;;;;;4995822;28;20026;-81
2023/10/20 05:30:22;;;;;;;6.68;3.97;;;15.50;89.60;;;;;;4995172;28;20196;-81
2023/10/20 05:32:48;;;;;;;6.38;4.07;;;15.50;89.70;;;;;;4995817;28;20018;-83
2023/10/20 05:35:13;;;;;;;9.55;4.30;;;15.40;89.60;;;;;;4996213;28;20656;-82
2023/10/20 05:37:39;;;;;;;8.18;4.10;;;15.50;89.80;;;;;;4993060;28;20022;-84
2023/10/20 05:40:08;;;;;;;9.35;4.60;;;15.50;89.70;;;;;;4961918;28;20822;-85
2023/10/20 05:42:33;;;;;;;8.48;4.15;;;15.50;89.70;;;;;;4976926;28;20030;-83
2023/10/20 05:45:17;;;;;;;9.43;4.43;;;15.50;89.70;;;;;;4973027;28;20031;-84
2023/10/20 05:47:43;;;;;;;15.18;4.82;;;15.50;89.60;;;;;;4976844;28;20427;-83
2023/10/20 05:50:09;;;;;;;11.18;4.40;;;15.50;89.60;;;;;;4975997;28;20033;-84
2023/10/20 05:52:35;;;;;;;18.00;5.47;;;15.50;89.60;;;;;;4976314;28;20026;-83
2023/10/20 05:55:03;;;;;;;10.60;4.47;;;15.60;89.50;;;;;;4975990;28;20058;-81
2023/10/20 05:57:31;;;;;;;11.63;4.68;;;15.70;89.30;;;;;;4976327;28;20027;-82
2023/10/20 05:59:59;;;;;;;11.57;4.47;;;15.80;89.10;;;;;;4976108;28;20043;-83
2023/10/20 06:02:25;;;;;;;7.75;4.20;;;15.90;88.80;;;;;;4976172;28;20035;-82
2023/10/20 06:04:51;;;;;;;11.18;4.88;;;15.90;88.70;;;;;;4976444;28;20034;-83
2023/10/20 06:07:17;;;;;;;11.32;4.85;;;16.00;89.10;;;;;;4976859;28;20034;-84
2023/10/20 06:09:42;;;;;;;10.02;4.70;;;16.10;89.20;;;;;;4975727;28;20486;-84
2023/10/20 06:12:10;;;;;;;8.95;4.07;;;16.10;89.40;;;;;;4976775;28;20033;-81
2023/10/20 06:14:36;;;;;;;9.35;4.38;;;16.20;89.50;;;;;;4977106;28;20084;-83
2023/10/20 06:17:02;;;;;;;9.30;4.40;;;16.20;89.30;;;;;;4993812;28;20080;-82
2023/10/20 06:19:28;;;;;;;10.48;4.30;;;16.90;89.40;;;;;;4967429;28;20030;-82
2023/10/20 06:21:55;;;;;;;8.40;4.20;;;16.90;89.20;;;;;;4973193;28;20169;-83
2023/10/20 06:24:24;;;;;;;9.35;4.32;;;16.50;88.80;;;;;;4957131;28;20420;-81
2023/10/20 06:26:49;;;;;;;10.40;4.25;;;16.40;88.60;;;;;;4956967;28;20117;-83
2023/10/20 06:34:33;;;;;;;7.60;3.50;;;16.60;88.00;;;;;;4973792;28;20581;-82
2023/10/20 06:37:07;;;;;;;7.30;3.20;;;16.70;87.90;;;;;;4972163;28;20416;-82
2023/10/20 06:39:32;;;;;;;11.63;4.10;;;16.70;87.60;;;;;;4972621;28;20066;-82
2023/10/20 06:41:58;;;;;;;9.13;4.05;;;16.70;87.50;;;;;;4972598;28;20074;-81
2023/10/20 06:44:23;;;;;;;9.65;3.63;;;16.80;87.30;;;;;;4972699;28;20062;-82
2023/10/20 06:46:49;;;;;;;7.93;3.50;;;16.90;87.00;;;;;;4956478;28;20023;-81
2023/10/20 06:49:18;;;;;;;7.53;3.58;;;16.80;87.00;;;;;;4972576;28;20027;-81
2023/10/20 06:51:45;;;;;;;8.98;3.78;;;16.80;87.40;;;;;;4972015;28;20023;-81
2023/10/20 06:54:12;;;;;;;7.72;3.60;;;16.70;87.50;;;;;;4956291;28;20038;-82
2023/10/20 06:56:37;;;;;;;9.60;3.70;;;16.70;87.60;;;;;;4955990;28;20411;-82
2023/10/20 06:59:03;;;;;;;9.80;3.58;;;16.60;87.70;;;;;;4971376;28;20023;-81
2023/10/20 07:01:32;;;;;;;9.27;4.00;;;16.70;87.80;;;;;;4971217;28;20027;-81
2023/10/20 07:03:58;;;;;;;6.47;3.15;;;16.60;87.90;;;;;;4955761;28;20058;-82
2023/10/20 07:06:24;;;;;;;8.00;3.63;;;16.60;87.80;;;;;;4955547;28;20026;-82
2023/10/20 07:08:50;;;;;;;8.55;3.72;;;16.60;87.80;;;;;;4955374;28;20077;-81
2023/10/20 07:11:16;;;;;;;7.68;3.70;;;16.60;88.00;;;;;;4972222;28;20047;-81
2023/10/20 07:13:45;;;;;;;7.95;3.30;;;16.40;87.90;;;;;;4972042;28;20053;-79
2023/10/20 07:16:14;;;;;;;7.90;3.30;;;16.40;88.40;;;;;;4955174;28;20027;-81
2023/10/20 07:18:39;;;;;;;6.68;3.10;;;16.40;88.60;;;;;;4971356;28;20026;-82
2023/10/20 07:21:05;;;;;;;7.38;2.92;;;16.40;88.80;;;;;;4972060;28;20805;-81
2023/10/20 07:23:32;;;;;;;9.57;3.65;;;16.30;88.80;;;;;;4971595;28;20118;-82
2023/10/20 07:25:57;;;;;;;7.50;3.50;;;16.30;88.90;;;;;;4970869;28;20442;-81
2023/10/20 07:28:23;;;;;;;6.90;3.53;;;16.30;89.00;;;;;;4971634;28;20117;-81
2023/10/20 07:30:49;;;;;;;8.52;3.30;;;16.30;89.20;;;;;;4970912;28;20046;-81
2023/10/20 07:33:14;;;;;;;5.85;3.05;;;16.20;89.20;;;;;;4971283;28;20026;-82
2023/10/20 07:35:42;;;;;;;6.93;3.03;;;16.20;89.20;;;;;;4971374;28;20019;-82
2023/10/20 07:38:07;;;;;;;8.35;3.47;;;16.20;89.20;;;;;;4972594;28;20110;-82
2023/10/20 07:40:34;;;;;;;9.05;3.33;;;16.20;89.40;;;;;;4970843;28;20118;-82
2023/10/20 07:43:01;;;;;;;5.97;3.08;;;16.20;89.40;;;;;;4971481;28;20026;-82
2023/10/20 07:45:28;;;;;;;7.20;3.35;;;16.20;89.40;;;;;;4955300;28;20034;-82
2023/10/20 07:47:53;;;;;;;7.10;3.03;;;16.10;89.40;;;;;;4971771;28;20029;-82
2023/10/20 07:50:19;;;;;;;8.15;3.30;;;16.10;89.50;;;;;;4971648;28;20026;-82
2023/10/20 07:52:45;;;;;;;8.73;3.17;;;16.10;89.50;;;;;;4977152;28;20050;-83
2023/10/20 07:55:10;;;;;;;7.32;2.88;;;16.20;89.40;;;;;;4985274;28;20110;-81
2023/10/20 07:57:36;;;;;;;6.30;2.90;;;16.20;89.10;;;;;;4964650;28;20496;-81
2023/10/20 08:00:03;;;;;;;7.90;2.88;;;16.30;89.00;;;;;;4970985;28;20034;-82
2023/10/20 08:02:29;;;;;;;7.43;2.80;;;16.20;88.90;;;;;;4992467;28;20161;-85
2023/10/20 08:04:54;;;;;;;7.20;3.20;;;16.30;88.90;;;;;;4975219;28;20066;-83
2023/10/20 08:07:20;;;;;;;7.78;2.95;;;16.20;88.80;;;;;;4992394;28;20039;-82
2023/10/20 08:09:46;;;;;;;5.65;2.90;;;16.30;88.80;;;;;;4974118;28;20023;-81
2023/10/20 08:12:12;;;;;;;6.80;3.00;;;16.20;88.70;;;;;;4991921;28;20034;-82
2023/10/20 08:14:37;;;;;;;5.97;2.90;;;16.30;88.80;;;;;;4974543;28;20054;-83
2023/10/20 08:17:07;;;;;;;7.07;3.20;;;16.20;88.70;;;;;;4974724;28;20030;-83
2023/10/20 08:19:33;;;;;;;6.28;3.22;;;16.20;88.90;;;;;;4974603;28;20057;-82
2023/10/20 08:21:59;;;;;;;6.05;2.97;;;16.10;89.20;;;;;;4974742;28;20052;-84
2023/10/20 08:24:25;;;;;;;6.32;2.88;;;16.10;89.30;;;;;;4974963;28;20523;-82
2023/10/20 08:26:51;;;;;;;6.30;2.88;;;16.00;89.40;;;;;;4991860;28;20050;-83
2023/10/20 08:29:17;;;;;;;5.85;2.90;;;16.00;89.60;;;;;;4974240;28;20057;-83
2023/10/20 08:31:42;;;;;;;7.38;3.45;;;16.00;89.60;;;;;;4974402;28;20543;-83
2023/10/20 08:34:09;;;;;;;6.63;3.13;;;16.00;89.60;;;;;;4978552;28;20462;-82
2023/10/20 08:36:36;;;;;;;6.35;2.75;;;16.00;89.80;;;;;;4998550;28;20049;-83
2023/10/20 08:39:06;;;;;;;6.07;2.92;;;16.00;89.80;;;;;;4980928;28;20504;-82
2023/10/20 08:41:33;;;;;;;5.93;2.97;;;16.00;90.10;;;;;;4980804;28;20027;-83
2023/10/20 08:43:59;;;;;;;5.85;2.50;;;15.90;89.80;;;;;;4998533;28;20026;-83
2023/10/20 08:46:25;;;;;;;6.15;3.00;;;15.90;89.90;;;;;;4999102;28;20034;-83
2023/10/20 08:48:52;;;;;;;5.75;2.70;;;15.90;89.90;;;;;;4980779;28;20034;-83
2023/10/20 08:51:18;;;;;;;7.32;2.70;;;15.90;89.90;;;;;;4998422;28;20118;-82
2023/10/20 08:53:44;;;;;;;7.53;2.45;;;15.90;89.90;;;;;;4980319;28;20113;-79
2023/10/20 08:56:12;;;;;;;6.03;2.63;;;15.90;90.00;;;;;;5013540;28;20030;-82
2023/10/20 08:58:38;;;;;;;5.00;2.38;;;16.00;89.90;;;;;;4980797;28;20033;-82
2023/10/20 09:01:05;;;;;;;6.30;2.70;;;16.00;89.70;;;;;;4997340;28;20034;-83
2023/10/20 09:03:43;;;;;;;5.63;2.88;;;16.00;89.50;;;;;;4967182;28;20535;-82
2023/10/20 09:06:17;;;;;;;4.95;2.53;;;16.00;89.30;;;;;;4961588;28;20533;-82
2023/10/20 09:08:49;;;;;;;5.35;2.80;;;16.10;89.30;;;;;;4961244;28;20027;-83
2023/10/20 09:11:15;;;;;;;6.38;3.00;;;16.10;89.10;;;;;;4961976;28;20412;-82
2023/10/20 09:13:43;;;;;;;6.15;2.53;;;16.10;88.90;;;;;;4961405;28;20038;-83
2023/10/20 09:16:10;;;;;;;5.93;2.60;;;16.10;88.80;;;;;;4978997;28;20022;-84
2023/10/20 09:18:43;;;;;;;6.65;2.70;;;16.10;88.80;;;;;;4979079;28;20027;-84
2023/10/20 09:21:09;;;;;;;5.85;2.45;;;16.00;88.90;;;;;;4979812;28;20019;-83
2023/10/20 09:23:34;;;;;;;6.13;2.63;;;16.00;89.10;;;;;;4961658;28;20037;-83
2023/10/20 09:26:00;;;;;;;4.82;2.60;;;16.00;89.20;;;;;;4961060;28;20496;-83
2023/10/20 09:28:25;;;;;;;5.30;2.33;;;15.90;89.30;;;;;;4969416;28;20034;-83
2023/10/20 09:30:54;;;;;;;5.40;2.67;;;15.90;89.40;;;;;;4980207;28;20160;-84
2023/10/20 09:33:21;;;;;;;6.13;2.78;;;15.90;89.50;;;;;;4980026;28;20025;-81
2023/10/20 09:35:46;;;;;;;4.43;2.28;;;15.90;89.60;;;;;;4980191;28;20041;-82
2023/10/20 09:38:13;;;;;;;5.57;2.60;;;15.90;89.70;;;;;;4979902;28;20030;-83
2023/10/20 09:40:41;;;;;;;5.82;2.58;;;15.90;89.70;;;;;;4980089;28;20026;-84
2023/10/20 09:43:22;;;;;;;4.95;2.17;;;15.90;89.70;;;;;;4996994;28;20648;-83
2023/10/20 09:45:52;;;;;;;4.90;2.30;;;15.90;89.80;;;;;;4993098;28;20034;-83
2023/10/20 09:48:19;;;;;;;4.63;2.40;;;15.90;89.80;;;;;;4993491;28;20037;-83
2023/10/20 09:50:49;;;;;;;6.63;2.42;;;15.90;89.90;;;;;;4992245;28;20058;-83
2023/10/20 09:53:18;;;;;;;4.78;2.30;;;15.80;89.80;;;;;;4976909;28;20027;-84
2023/10/20 09:55:45;;;;;;;4.40;1.98;;;15.80;89.80;;;;;;4992902;28;20038;-82
2023/10/20 09:58:12;;;;;;;4.60;2.30;;;15.80;89.80;;;;;;4976766;28;20030;-84
2023/10/20 10:00:41;;;;;;;4.20;2.10;;;15.80;90.00;;;;;;4976758;28;20026;-83
2023/10/20 10:03:08;;;;;;;5.88;2.10;;;15.90;90.00;;;;;;4976701;28;20061;-82
2023/10/20 10:05:36;;;;;;;5.00;2.17;;;15.90;89.80;;;;;;4993855;28;20081;-82
2023/10/20 10:08:11;;;;;;;4.32;2.10;;;15.90;89.70;;;;;;4975656;28;20034;-81
2023/10/20 10:10:37;;;;;;;5.10;2.25;;;15.90;89.50;;;;;;4976253;28;20506;-83
2023/10/20 10:13:06;;;;;;;3.83;2.10;;;15.90;89.40;;;;;;4976885;28;20125;-82
2023/10/20 10:15:45;;;;;;;4.13;2.10;;;15.90;89.20;;;;;;4976157;28;20381;-82
2023/10/20 10:18:12;;;;;;;4.40;1.90;;;16.00;89.10;;;;;;4976117;28;20057;-82
2023/10/20 10:20:49;;;;;;;4.07;2.22;;;16.00;89.10;;;;;;4976293;28;20030;-83
2023/10/20 10:23:15;;;;;;;4.65;1.90;;;16.00;89.20;;;;;;4976701;28;20034;-82
2023/10/20 10:25:42;;;;;;;4.82;2.10;;;15.80;89.10;;;;;;4976148;28;20073;-82
2023/10/20 10:28:16;;;;;;;4.18;2.20;;;15.90;89.20;;;;;;4967290;28;20118;-84
2023/10/20 10:30:44;;;;;;;5.10;2.35;;;15.90;89.30;;;;;;4973866;28;20050;-80
2023/10/20 10:33:11;;;;;;;4.90;2.15;;;15.80;89.30;;;;;;4957643;28;20025;-81
2023/10/20 10:35:38;;;;;;;4.32;1.80;;;15.90;89.50;;;;;;4956836;28;20135;-80
2023/10/20 10:38:24;;;;;;;3.05;1.70;;;15.80;89.60;;;;;;4956972;28;20026;-81
2023/10/20 10:40:52;;;;;;;3.72;2.00;;;15.80;89.60;;;;;;4974346;28;20036;-82
2023/10/20 10:43:19;;;;;;;3.20;1.85;;;15.80;89.60;;;;;;4956438;28;20041;-79
2023/10/20 10:45:50;;;;;;;3.85;1.90;;;15.80;89.70;;;;;;4957109;28;20555;-81
2023/10/20 10:48:16;;;;;;;4.23;1.93;;;15.80;89.70;;;;;;4964487;28;20038;-83
2023/10/20 10:50:46;;;;;;;3.92;1.85;;;15.80;89.70;;;;;;4967934;28;20031;-83
2023/10/20 10:53:13;;;;;;;4.20;2.00;;;15.80;89.80;;;;;;4969439;28;20035;-80
2023/10/20 10:55:40;;;;;;;4.38;1.88;;;15.80;89.80;;;;;;4966113;28;20031;-83
2023/10/20 10:58:10;;;;;;;4.47;1.90;;;15.70;89.70;;;;;;4984811;28;20421;-82
2023/10/20 11:00:39;;;;;;;4.22;1.70;;;15.80;89.80;;;;;;4971610;28;20027;-82
2023/10/20 11:03:06;;;;;;;4.07;2.00;;;15.80;89.80;;;;;;4958990;28;20134;-81
2023/10/20 11:05:35;;;;;;;4.55;1.70;;;15.70;89.80;;;;;;4976091;28;20042;-80
2023/10/20 11:08:01;;;;;;;4.63;1.83;;;15.80;90.00;;;;;;4957444;28;20034;-81
2023/10/20 11:10:27;;;;;;;3.90;1.75;;;15.80;89.90;;;;;;4957198;28;20023;-82
2023/10/20 11:12:54;;;;;;;4.45;2.00;;;15.80;89.80;;;;;;4974660;28;20058;-81
2023/10/20 11:15:20;;;;;;;4.03;1.95;;;15.80;89.70;;;;;;4957174;28;20314;-80
2023/10/20 11:17:49;;;;;;;3.08;1.77;;;15.80;90.00;;;;;;4966625;28;20054;-82
2023/10/20 11:20:18;;;;;;;4.25;2.13;;;15.90;89.40;;;;;;4959781;28;20505;-83
2023/10/20 11:22:44;;;;;;;4.32;1.50;;;15.90;89.30;;;;;;4974291;28;20037;-82
2023/10/20 11:25:18;;;;;;;3.05;1.58;;;15.90;89.20;;;;;;4978814;28;20034;-80
2023/10/20 11:27:46;;;;;;;3.72;1.80;;;15.90;89.20;;;;;;4995544;28;20022;-83
2023/10/20 11:30:12;;;;;;;3.33;1.73;;;15.90;89.20;;;;;;4978327;28;20418;-82
2023/10/20 11:32:37;;;;;;;3.90;1.80;;;15.80;89.20;;;;;;4978171;28;20018;-82
2023/10/20 11:35:04;;;;;;;4.47;1.90;;;15.80;89.30;;;;;;4978119;28;20481;-83
2023/10/20 11:37:30;;;;;;;3.33;1.65;;;15.80;89.40;;;;;;4977994;28;20050;-82
2023/10/20 11:39:55;;;;;;;2.92;1.65;;;15.70;89.30;;;;;;4977413;28;20045;-83
2023/10/20 11:42:21;;;;;;;3.15;1.70;;;15.80;89.50;;;;;;4977661;28;20503;-82
2023/10/20 11:44:46;;;;;;;3.20;1.73;;;15.70;89.50;;;;;;4977962;28;20034;-82
2023/10/20 11:47:12;;;;;;;4.32;1.80;;;15.80;89.60;;;;;;4977706;28;20037;-81
2023/10/20 11:49:37;;;;;;;3.08;1.75;;;15.80;89.70;;;;;;4978129;28;20388;-82
2023/10/20 11:52:07;;;;;;;3.67;1.80;;;15.70;89.60;;;;;;4995914;28;20026;-81
2023/10/20 11:54:32;;;;;;;3.08;1.60;;;15.70;89.60;;;;;;4971188;28;20022;-82
2023/10/20 11:56:58;;;;;;;3.38;1.50;;;15.70;89.70;;;;;;4957609;28;20686;-82
2023/10/20 11:59:23;;;;;;;2.92;1.50;;;15.70;89.70;;;;;;4956629;28;20078;-83
2023/10/20 12:01:49;;;;;;;3.45;1.60;;;15.70;89.70;;;;;;4956812;28;20019;-82
2023/10/20 12:04:15;;;;;;;3.65;1.80;;;15.70;89.80;;;;;;4956905;28;20035;-82
2023/10/20 12:06:40;;;;;;;3.70;1.80;;;15.70;89.70;;;;;;4956879;28;20054;-83
2023/10/20 12:09:10;;;;;;;3.13;1.50;;;15.70;89.80;;;;;;4956026;28;20030;-83
2023/10/20 12:11:37;;;;;;;2.60;1.50;;;15.70;89.80;;;;;;4956615;28;20023;-81
2023/10/20 12:14:04;;;;;;;3.05;1.50;;;15.70;89.80;;;;;;4989898;28;20037;-84
2023/10/20 12:16:29;;;;;;;2.85;1.50;;;15.70;89.80;;;;;;4975963;28;20023;-84
2023/10/20 12:18:55;;;;;;;3.33;1.70;;;15.70;89.70;;;;;;4975903;28;20057;-82
2023/10/20 12:21:20;;;;;;;2.95;1.40;;;15.70;89.60;;;;;;4992953;28;20073;-82
2023/10/20 12:23:46;;;;;;;2.63;1.48;;;15.70;89.50;;;;;;4975554;28;20026;-82
2023/10/20 12:26:11;;;;;;;3.25;1.50;;;15.70;89.40;;;;;;4993244;28;20400;-82
2023/10/20 12:28:37;;;;;;;4.25;1.58;;;15.80;89.40;;;;;;4975761;28;20025;-82
2023/10/20 12:31:02;;;;;;;3.92;1.67;;;15.80;89.20;;;;;;4992997;28;20462;-82
2023/10/20 12:33:28;;;;;;;3.72;1.70;;;15.80;89.10;;;;;;4975889;28;20485;-82
2023/10/20 12:35:54;;;;;;;5.15;1.88;;;15.80;89.10;;;;;;4975872;28;20126;-82
2023/10/20 12:38:21;;;;;;;4.10;1.58;;;15.80;89.20;;;;;;4975664;28;20041;-82
2023/10/20 12:40:46;;;;;;;3.22;1.60;;;15.80;89.30;;;;;;4975477;28;20060;-82
2023/10/20 12:43:12;;;;;;;2.10;1.30;;;15.80;89.30;;;;;;4993062;28;20062;-82
2023/10/20 12:45:38;;;;;;;2.25;1.23;;;15.80;89.30;;;;;;4975774;28;20034;-82
2023/10/20 12:48:05;;;;;;;3.17;1.40;;;15.70;89.30;;;;;;4975471;28;20084;-82
2023/10/20 12:50:32;;;;;;;2.70;1.50;;;15.70;89.40;;;;;;4975327;28;20023;-82
2023/10/20 12:53:04;;;;;;;3.10;1.50;;;15.70;89.50;;;;;;4992956;28;20512;-82
2023/10/20 12:55:30;;;;;;;2.40;1.30;;;15.70;89.50;;;;;;4975585;28;20038;-82
2023/10/20 12:57:56;;;;;;;3.58;1.60;;;15.70;89.60;;;;;;4975597;28;20366;-82
2023/10/20 13:00:23;;;;;;;2.97;1.60;;;15.70;89.60;;;;;;4975331;28;20164;-82
2023/10/20 13:02:52;;;;;;;2.95;1.42;;;15.70;89.70;;;;;;4975483;28;20125;-83
2023/10/20 13:05:19;;;;;;;2.55;1.38;;;15.70;89.70;;;;;;4975486;28;20169;-82
2023/10/20 13:07:44;;;;;;;2.72;1.38;;;15.70;89.70;;;;;;4975237;28;20156;-82
2023/10/20 13:10:10;;;;;;;2.63;1.40;;;15.70;89.70;;;;;;4975166;28;20113;-83
2023/10/20 13:12:36;;;;;;;2.80;1.60;;;15.70;89.80;;;;;;4992648;28;20042;-83
2023/10/20 13:15:02;;;;;;;2.55;1.48;;;15.70;89.80;;;;;;4975314;28;20512;-83
2023/10/20 13:17:30;;;;;;;2.53;1.38;;;15.70;89.80;;;;;;4992682;28;20041;-82